Latest Weather Observations for Yanakie

IDV60801

Issued at 6:02 pm EST Tuesday 30 June 2015 (issued every 30 minutes, with the page automatically refreshed every 10 minutes)

About weather observations | Map of weather stations | Latest weather observations for VIC | Other Formats
Station Details ID: 085301 Name: YANAKIE Lat: -38.81 Lon: 146.19 Height: 13.3 m
Data from the previous 72 hours. | See also: Recent months at Yanakie
Date/Time
EST
Temp
°C
App
Temp
°C
Dew
Point
Rel
Hum
%
Delta-T
°C
Wind Press
QNH
hPa
Press
MSL
hPa
Rain
since 9 am
mm
Dir
 
Spd
km/h
Gust
km/h
Spd
kts
Gust
kts
30/06:00pm 10.6 7.3 8.0 84 1.3 WNW 15 20 8 11 1026.9 1026.9 0.0
30/05:30pm 10.4 8.2 7.8 84 1.2 WNW 9 15 5 8 1026.8 1026.8 0.0
30/05:00pm 10.9 8.4 8.0 82 1.4 WNW 11 15 6 8 1026.6 1026.6 0.0
30/04:30pm 11.3 8.8 8.0 80 1.6 WNW 11 17 6 9 1026.5 1026.5 0.0
30/04:00pm 11.5 8.6 8.0 79 1.7 WNW 13 19 7 10 1026.4 1026.4 0.0
30/03:30pm 11.5 8.9 7.8 78 1.8 WNW 11 19 6 10 1026.3 1026.3 0.0
30/03:00pm 11.7 7.7 8.2 79 1.7 W 19 26 10 14 1026.2 1026.2 0.0
30/02:30pm 11.8 7.8 8.1 78 1.8 W 19 24 10 13 1026.4 1026.4 0.0
30/02:00pm 12.1 8.0 7.8 75 2.1 W 19 24 10 13 1026.4 1026.4 0.0
30/01:30pm 12.2 8.4 7.5 73 2.3 W 17 24 9 13 1026.4 1026.4 0.0
30/01:00pm 12.7 9.4 8.0 73 2.3 WNW 15 28 8 15 1026.7 1026.7 0.0
30/12:30pm 12.2 8.4 7.5 73 2.3 W 17 22 9 12 1027.1 1027.1 0.0
30/12:00pm 13.0 11.4 8.7 75 2.1 NW 7 15 4 8 1027.5 1027.5 0.0
30/11:30am 11.3 8.2 7.4 77 1.9 NW 13 17 7 9 1027.9 1027.9 0.0
30/11:00am 11.1 8.5 7.6 79 1.7 NNW 11 15 6 8 1028.2 1028.2 0.0
30/10:30am 10.4 8.0 7.1 80 1.6 WNW 9 13 5 7 1028.7 1028.7 0.0
30/10:00am 10.3 8.3 7.0 80 1.5 NW 7 13 4 7 1028.7 1028.7 0.0
30/09:30am 10.1 7.3 7.0 81 1.5 NW 11 15 6 8 1028.6 1028.6 0.0
30/09:00am 9.8 6.6 6.9 82 1.4 NNW 13 19 7 10 1028.4 1028.4 0.0
30/08:30am 9.4 7.3 6.7 83 1.3 N 7 11 4 6 1028.4 1028.4 0.0
30/08:00am 9.4 6.5 6.7 83 1.2 NW 11 17 6 9 1028.2 1028.2 0.0
30/07:30am 9.5 6.7 6.9 84 1.2 NW 11 15 6 8 1028.2 1028.2 0.0
30/07:00am 9.4 7.0 7.0 85 1.1 NW 9 13 5 7 1028.1 1028.1 0.0
30/06:30am 9.4 7.1 7.3 87 1.0 WNW 9 13 5 7 1027.9 1027.9 0.0
30/06:00am 8.9 7.1 7.0 88 0.9 WNW 6 7 3 4 1027.8 1027.8 0.0
30/05:30am 8.6 7.1 6.6 87 0.9 W 4 4 2 2 1027.6 1027.6 0.0
30/05:00am 9.0 8.3 6.8 86 1.0 CALM 0 0 0 0 1027.7 1027.7 0.0
30/04:30am 9.3 7.5 7.1 86 1.0 NNW 6 7 3 4 1027.6 1027.6 0.0
30/04:00am 9.6 7.8 7.2 85 1.1 NNW 6 7 3 4 1027.8 1027.8 0.0
30/03:30am 9.5 7.7 7.3 86 1.0 NW 6 7 3 4 1027.9 1027.9 0.0
30/03:00am 9.7 8.0 7.5 86 1.0 WNW 6 7 3 4 1028.0 1028.0 0.0
30/02:30am 9.6 7.9 7.4 86 1.0 W 6 7 3 4 1028.2 1028.2 0.0
30/02:00am 9.8 8.1 7.6 86 1.0 WNW 6 9 3 5 1028.4 1028.4 0.0
30/01:30am 9.8 8.1 7.6 86 1.1 W 6 7 3 4 1028.5 1028.5 0.0
30/01:00am 9.6 9.0 7.4 86 1.0 CALM 0 0 0 0 1028.7 1028.7 0.0
30/12:30am 9.5 8.9 7.4 87 1.0 CALM 0 4 0 2 1028.9 1028.9 0.0
30/12:00am 9.9 9.4 7.8 87 1.0 CALM 0 0 0 0 1029.2 1029.2 0.0
 
Date/Time
EST
Temp
°C
App
Temp
°C
Dew
Point
Rel
Hum
%
Delta-T
°C
Wind Press
QNH
hPa
Press
MSL
hPa
Rain
since 9 am
mm
Dir
 
Spd
km/h
Gust
km/h
Spd
kts
Gust
kts
29/11:30pm 9.9 8.7 8.0 88 0.9 NNW 4 7 2 4 1029.3 1029.3 0.0
29/11:00pm 9.6 7.7 7.7 88 0.9 NNW 7 9 4 5 1029.2 1029.2 0.0
29/10:30pm 8.4 6.5 6.7 89 0.8 NW 6 9 3 5 1029.2 1029.2 0.0
29/10:00pm 8.8 7.7 6.9 88 0.9 NNW 2 6 1 3 1029.5 1029.5 0.0
29/09:30pm 8.8 7.3 6.8 87 0.9 WNW 4 6 2 3 1029.8 1029.8 0.0
29/09:00pm 9.7 8.0 7.6 87 1.0 WNW 6 7 3 4 1030.0 1030.0 0.0
29/08:30pm 9.3 7.5 7.1 86 1.0 WNW 6 9 3 5 1030.3 1030.3 0.0
29/08:00pm 9.9 7.7 7.7 86 1.0 NW 9 13 5 7 1030.5 1030.5 0.0
29/07:30pm 10.3 8.7 8.1 86 1.1 NW 6 9 3 5 1030.5 1030.5 0.0
29/07:00pm 10.2 8.4 7.8 85 1.1 NW 7 9 4 5 1030.4 1030.4 0.0
29/06:30pm 10.8 9.3 8.4 85 1.2 WNW 6 6 3 3 1030.3 1030.3 0.0
29/06:00pm 10.9 9.2 8.5 85 1.2 W 7 9 4 5 1030.3 1030.3 0.0
29/05:30pm 11.2 9.5 8.4 83 1.4 W 7 9 4 5 1030.3 1030.3 0.0
29/05:00pm 11.5 9.8 8.4 81 1.5 WNW 7 9 4 5 1030.2 1030.2 0.0
29/04:30pm 11.8 9.7 8.3 79 1.7 WNW 9 13 5 7 1030.4 1030.4 0.0
29/04:00pm 12.2 10.5 8.5 78 1.8 WNW 7 11 4 6 1030.6 1030.6 0.0
29/03:30pm 12.5 9.6 8.2 75 2.1 WNW 13 17 7 9 1030.5 1030.5 0.0
29/03:00pm 12.7 9.5 8.6 76 2.0 W 15 20 8 11 1030.6 1030.6 0.0
29/02:30pm 12.8 8.9 8.5 75 2.1 W 19 24 10 13 1030.6 1030.6 0.0
29/02:00pm 13.1 10.3 8.6 74 2.2 W 13 17 7 9 1030.6 1030.6 0.0
29/01:30pm 13.1 10.4 8.8 75 2.2 W 13 20 7 11 1030.8 1030.8 0.0
29/01:00pm 13.2 10.1 8.9 75 2.1 WNW 15 22 8 12 1031.2 1031.2 0.0
29/12:30pm 13.5 11.3 9.2 75 2.2 WNW 11 15 6 8 1031.4 1031.4 0.0
29/12:00pm 13.4 10.8 9.5 77 2.0 WNW 13 20 7 11 1031.9 1031.9 0.0
29/11:30am 13.2 9.9 9.5 78 1.9 NW 17 20 9 11 1032.1 1032.1 0.0
29/11:00am 12.9 9.1 9.2 78 1.9 NW 19 24 10 13 1032.3 1032.3 0.0
29/10:30am 12.5 9.5 9.1 80 1.7 NW 15 22 8 12 1032.5 1032.5 0.0
29/10:00am 11.9 8.8 8.9 82 1.5 NW 15 20 8 11 1032.8 1032.8 0.0
29/09:30am 11.3 8.5 8.5 83 1.4 WNW 13 17 7 9 1032.9 1032.9 0.0
29/09:00am 11.0 8.5 8.4 84 1.3 NW 11 17 6 9 1032.8 1032.8 0.0
29/08:30am 10.6 8.1 8.2 85 1.2 NNW 11 15 6 8 1032.8 1032.8 0.0
29/08:00am 10.2 8.0 8.0 86 1.1 NW 9 13 5 7 1032.5 1032.5 0.0
29/07:30am 10.0 7.4 7.9 87 1.0 NW 11 15 6 8 1032.3 1032.3 0.0
29/07:00am 10.0 7.0 7.9 87 1.0 NW 13 15 7 8 1032.0 1032.0 0.0
29/06:30am 9.9 7.3 7.8 87 1.0 WNW 11 15 6 8 1031.9 1031.9 0.0
29/06:00am 9.9 7.7 8.0 88 0.9 WNW 9 13 5 7 1031.8 1031.8 0.0
29/05:30am 9.8 8.0 7.9 88 0.9 WNW 7 9 4 5 1031.8 1031.8 0.0
29/05:00am 10.1 7.9 7.9 86 1.0 W 9 13 5 7 1031.9 1031.9 0.0
29/04:30am 10.2 7.7 8.1 87 1.0 NW 11 15 6 8 1031.8 1031.8 0.0
29/04:00am 9.9 7.3 7.8 87 1.0 NW 11 13 6 7 1031.8 1031.8 0.0
29/03:30am 9.3 6.5 6.9 85 1.1 WNW 11 13 6 7 1031.8 1031.8 0.0
29/03:00am 10.1 7.5 7.7 85 1.1 WNW 11 17 6 9 1032.0 1032.0 0.0
29/02:30am 9.4 6.5 6.7 83 1.3 WNW 11 15 6 8 1032.0 1032.0 0.0
29/02:00am 10.4 7.7 7.5 82 1.4 WNW 11 17 6 9 1032.0 1032.0 0.0
29/01:30am 10.5 7.8 7.4 81 1.5 WNW 11 15 6 8 1032.0 1032.0 0.0
29/01:00am 10.7 8.1 7.8 82 1.4 WNW 11 15 6 8 1032.0 1032.0 0.0
29/12:30am 10.7 7.7 7.9 83 1.4 WNW 13 17 7 9 1032.1 1032.1 0.0
29/12:00am 10.5 7.9 7.9 84 1.2 WNW 11 19 6 10 1032.4 1032.4 0.0
 
Date/Time
EST
Temp
°C
App
Temp
°C
Dew
Point
Rel
Hum
%
Delta-T
°C
Wind Press
QNH
hPa
Press
MSL
hPa
Rain
since 9 am
mm
Dir
 
Spd
km/h
Gust
km/h
Spd
kts
Gust
kts
28/11:30pm 10.1 7.5 7.9 86 1.1 NW 11 13 6 7 1032.5 1032.5 0.0
28/11:00pm 9.3 6.9 6.9 85 1.1 WNW 9 15 5 8 1032.5 1032.5 0.0
28/10:30pm 9.6 7.2 7.0 84 1.2 WNW 9 13 5 7 1032.7 1032.7 0.0
28/10:00pm 9.1 6.9 6.4 83 1.2 WNW 7 9 4 5 1032.8 1032.8 0.0
28/09:30pm 10.1 7.7 7.2 82 1.4 WNW 9 13 5 7 1032.9 1032.9 0.0
28/09:00pm 10.1 7.4 7.2 82 1.4 WNW 11 15 6 8 1033.1 1033.1 0.0
28/08:30pm 10.4 7.3 7.3 81 1.5 WNW 13 15 7 8 1033.0 1033.0 0.0
28/08:00pm 10.7 8.4 7.6 81 1.5 WNW 9 11 5 6 1033.1 1033.1 0.0
28/07:30pm 10.5 7.9 7.6 82 1.4 WNW 11 13 6 7 1033.0 1033.0 0.0
28/07:00pm 9.9 6.6 6.6 80 1.5 NW 13 17 7 9 1032.8 1032.8 0.0
28/06:30pm 11.1 8.1 7.6 79 1.7 W 13 19 7 10 1032.6 1032.6 0.0
28/06:00pm 11.2 8.2 7.5 78 1.8 WNW 13 19 7 10 1032.3 1032.3 0.0
28/05:30pm 11.3 8.2 7.4 77 1.9 WNW 13 17 7 9 1032.1 1032.1 0.0
28/05:00pm 11.7 9.1 7.8 77 1.9 WNW 11 13 6 7 1032.1 1032.1 0.0
28/04:30pm 12.1 9.5 7.8 75 2.1 WNW 11 15 6 8 1032.0 1032.0 0.0
28/04:00pm 12.4 8.7 8.1 75 2.1 W 17 24 9 13 1031.9 1031.9 0.0
28/03:30pm 12.7 8.8 8.6 76 2.0 W 19 26 10 14 1031.7 1031.7 0.0
28/03:00pm 13.0 8.6 9.1 77 2.0 W 22 32 12 17 1031.7 1031.7 0.0
28/02:30pm 12.8 8.8 9.1 78 1.9 W 20 28 11 15 1031.6 1031.6 0.0
28/02:00pm 12.8 8.9 9.3 79 1.8 W 20 33 11 18 1031.6 1031.6 0.0
28/01:30pm 13.1 8.2 8.6 74 2.2 W 24 37 13 20 1031.7 1031.7 0.0
28/01:00pm 13.2 7.7 7.6 69 2.7 W 26 37 14 20 1031.8 1031.8 0.0
28/12:30pm 13.2 7.6 8.7 74 2.3 W 28 39 15 21 1032.0 1032.0 0.0
28/12:00pm 12.8 9.7 10.2 84 1.3 WNW 17 24 9 13 1032.4 1032.4 0.0
28/11:30am 12.6 9.4 10.1 85 1.3 WNW 17 24 9 13 1032.6 1032.6 0.0
28/11:00am 12.6 8.9 10.0 84 1.3 WNW 20 26 11 14 1032.7 1032.7 0.0
28/10:30am 12.2 8.7 10.1 87 1.1 WNW 19 26 10 14 1032.6 1032.6 0.0
28/10:00am 11.6 8.4 9.9 89 0.9 WNW 17 24 9 13 1032.5 1032.5 0.0
28/09:30am 11.0 8.0 9.4 90 0.8 WNW 15 24 8 13 1032.5 1032.5 0.0
28/09:00am 10.5 7.5 9.1 91 0.7 WNW 15 22 8 12 1032.3 1032.3 0.0
28/08:30am 10.1 6.6 8.9 92 0.6 WNW 17 22 9 12 1032.1 1032.1 0.0
28/08:00am 8.8 6.2 7.6 92 0.6 WNW 11 19 6 10 1032.1 1032.1 0.0
28/07:30am 8.9 5.5 7.5 91 0.7 WNW 15 20 8 11 1031.7 1031.7 0.0
28/07:00am 9.2 5.0 7.6 90 0.8 WNW 19 26 10 14 1031.5 1031.5 0.0
28/06:30am 9.8 6.1 8.1 89 0.8 WNW 17 24 9 13 1031.4 1031.4 0.0
28/06:00am 10.0 6.8 8.3 89 0.8 WNW 15 20 8 11 1031.1 1031.1 0.0
28/05:30am 10.3 6.1 8.4 88 0.9 WNW 20 26 11 14 1030.7 1030.7 0.0
28/05:00am 10.0 5.8 8.1 88 0.9 NW 20 32 11 17 1030.4 1030.4 0.0
28/04:30am 9.6 4.6 7.9 89 0.8 WNW 24 33 13 18 1030.4 1030.4 0.0
28/04:00am 9.4 4.6 7.5 88 0.9 NW 22 28 12 15 1030.4 1030.4 0.0
28/03:30am 9.9 5.3 8.0 88 0.9 WNW 22 30 12 16 1030.6 1030.6 0.0
28/03:00am 9.4 5.2 7.5 88 0.9 WNW 19 24 10 13 1030.9 1030.9 0.0
28/02:30am 9.0 5.1 7.1 88 0.9 NW 17 24 9 13 1030.7 1030.7 0.0
28/02:00am 9.6 5.2 7.4 86 1.0 NW 20 30 11 16 1030.6 1030.6 0.0
28/01:30am 10.4 6.3 7.8 84 1.3 WNW 19 26 10 14 1030.6 1030.6 0.0
28/01:00am 10.5 5.4 7.7 83 1.3 WNW 24 33 13 18 1030.5 1030.5 0.0
28/12:30am 10.6 6.3 7.8 83 1.4 WNW 20 28 11 15 1030.5 1030.5 0.0
28/12:00am 10.3 6.0 7.7 84 1.2 NW 20 28 11 15 1030.5 1030.5 0.0
 
Date/Time
EST
Temp
°C
App
Temp
°C
Dew
Point
Rel
Hum
%
Delta-T
°C
Wind Press
QNH
hPa
Press
MSL
hPa
Rain
since 9 am
mm
Dir
 
Spd
km/h
Gust
km/h
Spd
kts
Gust
kts
27/11:30pm 10.5 6.4 7.9 84 1.3 NW 19 26 10 14 1030.5 1030.5 0.0
27/11:00pm 10.1 5.8 7.7 85 1.1 NW 20 26 11 14 1030.4 1030.4 0.0
27/10:30pm 9.9 5.5 7.2 83 1.3 NW 20 28 11 15 1030.5 1030.5 0.0
27/10:00pm 10.7 5.6 7.6 81 1.5 NW 24 33 13 18 1030.3 1030.3 0.0
27/09:30pm 10.6 5.4 7.3 80 1.6 NW 24 32 13 17 1030.5 1030.5 0.0
27/09:00pm 10.8 6.0 7.5 80 1.6 NW 22 28 12 15 1030.6 1030.6 0.0
27/08:30pm 10.7 5.9 7.2 79 1.7 NW 22 30 12 16 1030.5 1030.5 0.0
27/08:00pm 10.9 5.7 7.4 79 1.7 NW 24 33 13 18 1030.4 1030.4 0.0
27/07:30pm 10.8 6.1 7.7 81 1.5 NW 22 30 12 16 1030.3 1030.3 0.0
27/07:00pm 11.0 6.3 7.9 81 1.5 NW 22 30 12 16 1030.1 1030.1 0.0
27/06:30pm 11.3 6.7 8.2 81 1.5 NW 22 30 12 16 1029.9 1029.9 0.0

Other Formats:

Comma delimited format used in spreadsheet applications
http://www.bom.gov.au/fwo/IDV60801/IDV60801.94911.axf

JavaScript Object Notation format (JSON) in row-major order
http://www.bom.gov.au/fwo/IDV60801/IDV60801.94911.json